createdAt,value
2022-10-16T00:00:13.364Z,100579.69
2022-10-16T00:03:02.109Z,100582.09
2022-10-16T00:05:31.094Z,100582.94
2022-10-16T00:07:59.830Z,100586.19
2022-10-16T00:10:29.722Z,100574.19
2022-10-16T00:12:58.447Z,100575.25
2022-10-16T00:15:27.100Z,100584.03
2022-10-16T00:17:55.895Z,100573.69
2022-10-16T00:20:24.512Z,100578.50
2022-10-16T00:23:11.902Z,100583.56
2022-10-16T00:25:41.820Z,100587.41
2022-10-16T00:28:10.749Z,100576.69
2022-10-16T00:30:40.912Z,100581.38
2022-10-16T00:33:09.681Z,100588.88
2022-10-16T00:35:38.174Z,100581.00
2022-10-16T00:38:06.890Z,100588.94
2022-10-16T00:40:35.448Z,100595.84
2022-10-16T00:43:11.628Z,100596.16
2022-10-16T00:45:40.269Z,100598.69
2022-10-16T00:48:16.274Z,100600.03
2022-10-16T00:50:44.891Z,100603.28
2022-10-16T00:53:14.224Z,100604.25
2022-10-16T00:55:42.809Z,100601.34
2022-10-16T00:58:13.741Z,100600.88
2022-10-16T01:00:42.597Z,100599.66
2022-10-16T01:03:28.623Z,100594.63
2022-10-16T01:06:15.512Z,100594.25
2022-10-16T01:09:02.887Z,100600.38
2022-10-16T01:11:37.969Z,100592.44
2022-10-16T01:14:20.723Z,100597.97
2022-10-16T01:16:57.425Z,100601.59
2022-10-16T01:19:50.192Z,100592.94
2022-10-16T01:22:22.551Z,100603.25
2022-10-16T01:24:54.424Z,100612.75
2022-10-16T01:27:30.859Z,100618.41
2022-10-16T01:30:10.886Z,100616.72
2022-10-16T01:32:44.018Z,100622.38
2022-10-16T01:35:22.339Z,100620.13
2022-10-16T01:37:58.157Z,100635.00
2022-10-16T01:40:30.379Z,100632.81
2022-10-16T01:43:06.637Z,100631.84
2022-10-16T01:45:38.251Z,100629.47
2022-10-16T01:48:10.697Z,100633.06
2022-10-16T01:50:44.732Z,100618.41
2022-10-16T01:53:17.366Z,100617.66
2022-10-16T01:55:51.429Z,100622.22
2022-10-16T01:58:21.254Z,100618.75
2022-10-16T02:00:50.732Z,100617.41
2022-10-16T02:03:22.755Z,100610.22
2022-10-16T02:05:56.098Z,100614.53
2022-10-16T02:08:29.241Z,100618.38
2022-10-16T02:10:58.647Z,100624.72
2022-10-16T02:13:35.273Z,100620.41
2022-10-16T02:16:04.244Z,100614.41
2022-10-16T02:18:33.151Z,100614.53
2022-10-16T02:21:15.114Z,100617.03
2022-10-16T02:23:53.523Z,100613.81
2022-10-16T02:26:32.168Z,100604.41
2022-10-16T02:29:06.835Z,100607.66
2022-10-16T02:31:43.341Z,100607.75
2022-10-16T02:34:15.237Z,100607.25
2022-10-16T02:36:46.093Z,100611.06
2022-10-16T02:39:16.404Z,100615.63
2022-10-16T02:41:45.528Z,100627.91
2022-10-16T02:44:15.403Z,100622.00
2022-10-16T02:46:44.102Z,100625.47
2022-10-16T02:49:12.653Z,100625.59
2022-10-16T02:51:41.386Z,100631.22
2022-10-16T02:54:10.035Z,100632.06
2022-10-16T02:56:38.825Z,100626.53
2022-10-16T02:59:07.502Z,100637.97
2022-10-16T03:01:37.797Z,100626.53
2022-10-16T03:04:06.490Z,100640.34
2022-10-16T03:06:35.286Z,100632.91
2022-10-16T03:09:03.916Z,100642.50
2022-10-16T03:11:32.632Z,100639.25
2022-10-16T03:14:01.265Z,100646.13
2022-10-16T03:16:30.201Z,100642.50
2022-10-16T03:19:00.067Z,100643.47
2022-10-16T03:21:28.831Z,100643.69
2022-10-16T03:23:57.404Z,100642.25
2022-10-16T03:26:26.129Z,100647.53
2022-10-16T03:28:54.660Z,100649.31
2022-10-16T03:31:23.676Z,100658.09
2022-10-16T03:33:52.313Z,100650.91
2022-10-16T03:36:22.525Z,100652.81
2022-10-16T03:38:51.188Z,100652.56
2022-10-16T03:41:19.937Z,100654.59
2022-10-16T03:43:48.446Z,100662.63
2022-10-16T03:46:17.184Z,100667.53
2022-10-16T03:48:45.890Z,100671.00
2022-10-16T03:51:14.651Z,100667.03
2022-10-16T03:53:44.629Z,100663.38
2022-10-16T03:56:13.447Z,100664.63
2022-10-16T03:58:41.979Z,100653.66
2022-10-16T04:01:10.810Z,100666.22
2022-10-16T04:03:39.382Z,100673.31
2022-10-16T04:06:08.113Z,100669.75
2022-10-16T04:08:37.659Z,100668.03
2022-10-16T04:11:08.022Z,100661.94
2022-10-16T04:13:36.552Z,100662.25
2022-10-16T04:16:05.918Z,100662.66
2022-10-16T04:18:34.524Z,100663.59
2022-10-16T04:21:05.937Z,100675.38
2022-10-16T04:23:35.167Z,100672.88
2022-10-16T04:26:04.176Z,100692.81
2022-10-16T04:28:34.112Z,100695.56
2022-10-16T04:31:05.983Z,100685.22
2022-10-16T04:33:35.097Z,100684.38
2022-10-16T04:36:06.214Z,100684.72
2022-10-16T04:38:34.787Z,100686.09
2022-10-16T04:41:03.463Z,100688.44
2022-10-16T04:43:33.325Z,100691.28
2022-10-16T04:46:02.824Z,100692.47
2022-10-16T04:48:31.348Z,100691.44
2022-10-16T04:51:00.150Z,100700.28
2022-10-16T04:53:28.766Z,100693.44
2022-10-16T04:55:58.189Z,100694.72
2022-10-16T04:58:26.786Z,100697.78
2022-10-16T05:00:57.108Z,100698.09
2022-10-16T05:03:25.728Z,100700.53
2022-10-16T05:05:54.511Z,100703.47
2022-10-16T05:08:23.170Z,100711.28
2022-10-16T05:10:51.914Z,100713.81
2022-10-16T05:13:20.451Z,100716.13
2022-10-16T05:15:50.164Z,100723.75
2022-10-16T05:18:20.179Z,100722.44
2022-10-16T05:20:49.015Z,100721.59
2022-10-16T05:23:17.624Z,100721.50
2022-10-16T05:25:54.554Z,100712.97
2022-10-16T05:28:23.928Z,100718.44
2022-10-16T05:30:53.101Z,100712.34
2022-10-16T05:33:26.370Z,100716.75
2022-10-16T05:35:55.157Z,100712.94
2022-10-16T05:38:23.972Z,100710.09
2022-10-16T05:40:55.638Z,100716.63
2022-10-16T05:43:24.646Z,100711.91
2022-10-16T05:45:57.963Z,100723.75
2022-10-16T05:48:28.693Z,100723.06
2022-10-16T05:51:01.247Z,100728.88
2022-10-16T05:53:31.423Z,100731.75
2022-10-16T05:56:01.050Z,100737.66
2022-10-16T05:58:33.861Z,100729.22
2022-10-16T06:01:06.469Z,100742.72
2022-10-16T06:03:37.206Z,100744.00
2022-10-16T06:06:12.477Z,100738.38
2022-10-16T06:08:42.261Z,100743.13
2022-10-16T06:11:15.420Z,100747.25
2022-10-16T06:13:44.420Z,100754.09
2022-10-16T06:16:14.357Z,100757.16
2022-10-16T06:18:44.267Z,100760.00
2022-10-16T06:21:18.277Z,100761.03
2022-10-16T06:23:47.928Z,100754.72
2022-10-16T06:26:19.536Z,100752.28
2022-10-16T06:28:49.248Z,100760.19
2022-10-16T06:31:19.438Z,100764.81
2022-10-16T06:33:53.584Z,100765.09
2022-10-16T06:36:23.173Z,100763.25
2022-10-16T06:38:52.211Z,100762.22
2022-10-16T06:41:24.263Z,100769.34
2022-10-16T06:43:54.188Z,100778.19
2022-10-16T06:46:25.674Z,100777.97
2022-10-16T06:48:55.804Z,100780.53
2022-10-16T06:51:26.719Z,100777.88
2022-10-16T06:54:03.261Z,100767.06
2022-10-16T06:56:34.720Z,100780.91
2022-10-16T06:59:04.705Z,100785.91
2022-10-16T07:01:34.601Z,100795.91
2022-10-16T07:04:04.749Z,100794.22
2022-10-16T07:06:35.983Z,100792.53
2022-10-16T07:09:07.788Z,100794.06
2022-10-16T07:11:38.595Z,100794.19
2022-10-16T07:14:11.162Z,100794.13
2022-10-16T07:16:39.934Z,100800.78
2022-10-16T07:19:12.778Z,100795.72
2022-10-16T07:21:41.624Z,100798.84
2022-10-16T07:24:15.871Z,100801.03
2022-10-16T07:26:47.123Z,100789.06
2022-10-16T07:29:18.575Z,100771.16
2022-10-16T07:31:48.168Z,100768.53
2022-10-16T07:34:22.561Z,100757.31
2022-10-16T07:36:52.199Z,100775.97
2022-10-16T07:39:21.104Z,100791.03
2022-10-16T07:41:49.848Z,100812.81
2022-10-16T07:44:18.508Z,100801.09
2022-10-16T07:46:47.762Z,100803.75
2022-10-16T07:49:17.630Z,100792.31
2022-10-16T07:51:46.385Z,100798.78
2022-10-16T07:54:15.040Z,100789.44
2022-10-16T07:56:44.128Z,100784.63
2022-10-16T07:59:13.136Z,100793.69
2022-10-16T08:01:43.148Z,100790.06
2022-10-16T08:04:12.431Z,100799.06
2022-10-16T08:06:43.518Z,100802.63
2022-10-16T08:09:12.216Z,100813.31
2022-10-16T08:11:40.900Z,100812.81
2022-10-16T08:14:09.546Z,100813.75
2022-10-16T08:16:38.437Z,100814.00
2022-10-16T08:19:06.994Z,100825.13
2022-10-16T08:21:35.722Z,100824.34
2022-10-16T08:24:05.759Z,100819.41
2022-10-16T08:26:34.511Z,100822.97
2022-10-16T08:29:03.138Z,100825.78
2022-10-16T08:31:32.031Z,100833.75
2022-10-16T08:34:00.583Z,100841.31
2022-10-16T08:36:29.583Z,100840.25
2022-10-16T08:38:58.156Z,100846.91
2022-10-16T08:42:18.267Z,100844.41
2022-10-16T08:45:23.746Z,100848.50
2022-10-16T08:48:05.328Z,100848.06
2022-10-16T08:50:40.351Z,100848.31
2022-10-16T08:53:17.099Z,100847.19
2022-10-16T08:55:51.464Z,100851.94
2022-10-16T08:58:24.576Z,100852.22
2022-10-16T09:00:58.035Z,100845.38
2022-10-16T09:03:48.498Z,100853.78
2022-10-16T09:06:34.259Z,100859.38
2022-10-16T09:09:28.561Z,100862.59
2022-10-16T09:12:07.065Z,100867.00
2022-10-16T09:14:54.873Z,100854.13
2022-10-16T09:17:40.006Z,100858.19
2022-10-16T09:20:29.969Z,100845.38
2022-10-16T09:23:16.424Z,100840.56
2022-10-16T09:25:49.788Z,100845.31
2022-10-16T09:28:19.911Z,100844.41
2022-10-16T09:30:51.238Z,100846.47
2022-10-16T09:33:25.680Z,100849.72
2022-10-16T09:35:59.457Z,100839.34
2022-10-16T09:38:30.850Z,100845.34
2022-10-16T09:41:03.449Z,100803.75
2022-10-16T09:43:41.269Z,100844.47
2022-10-16T09:46:26.846Z,100846.44
2022-10-16T09:48:59.155Z,100842.69
2022-10-16T09:51:31.475Z,100849.22
2022-10-16T09:54:03.138Z,100849.59
2022-10-16T09:56:34.540Z,100838.38
2022-10-16T09:59:12.544Z,100834.09
2022-10-16T10:01:48.306Z,100839.28
2022-10-16T10:04:17.367Z,100826.22
2022-10-16T10:06:49.827Z,100846.44
2022-10-16T10:09:22.614Z,100849.03
2022-10-16T10:11:55.924Z,100852.56
2022-10-16T10:14:34.485Z,100858.19
2022-10-16T10:17:17.777Z,100850.31
2022-10-16T10:19:54.136Z,100841.88
2022-10-16T10:22:34.660Z,100845.75
2022-10-16T10:25:24.641Z,100844.75
2022-10-16T10:28:16.439Z,100835.09
2022-10-16T10:30:58.223Z,100841.56
2022-10-16T10:33:40.680Z,100840.88
2022-10-16T10:36:32.340Z,100839.88
2022-10-16T10:39:07.339Z,100845.63
2022-10-16T10:42:24.399Z,100847.34
2022-10-16T10:45:13.765Z,100838.16
2022-10-16T10:47:55.683Z,100843.72
2022-10-16T10:50:37.622Z,100844.81
2022-10-16T10:53:23.852Z,100844.41
2022-10-16T10:56:03.077Z,100834.47
2022-10-16T10:58:57.236Z,100831.72
2022-10-16T11:01:41.177Z,100837.75
2022-10-16T11:04:53.254Z,100831.63
2022-10-16T11:07:30.473Z,100821.25
2022-10-16T11:10:07.171Z,100831.78
2022-10-16T11:12:43.970Z,100830.88
2022-10-16T11:15:21.359Z,100825.81
2022-10-16T11:17:59.115Z,100821.78
2022-10-16T11:20:32.043Z,100831.66
2022-10-16T11:23:12.799Z,100823.22
2022-10-16T11:25:42.309Z,100819.53
2022-10-16T11:28:18.059Z,100826.91
2022-10-16T11:30:52.179Z,100841.78
2022-10-16T11:33:37.358Z,100834.94
2022-10-16T11:36:16.290Z,100846.69
2022-10-16T11:38:56.349Z,100843.72
2022-10-16T11:41:34.975Z,100845.00
2022-10-16T11:44:23.281Z,100833.13
2022-10-16T11:47:28.528Z,100824.97
2022-10-16T11:49:59.543Z,100833.38
2022-10-16T11:52:39.543Z,100820.81
2022-10-16T11:55:19.489Z,100816.56
2022-10-16T11:57:53.573Z,100806.63
2022-10-16T12:00:26.687Z,100813.91
2022-10-16T12:03:05.695Z,100827.63
2022-10-16T12:06:00.849Z,100831.47
2022-10-16T12:08:30.461Z,100830.88
2022-10-16T12:11:12.216Z,100835.38
2022-10-16T12:13:44.374Z,100827.16
2022-10-16T12:16:25.343Z,100830.72
2022-10-16T12:19:17.140Z,100834.78
2022-10-16T12:21:48.060Z,100838.88
2022-10-16T12:24:32.236Z,100845.78
2022-10-16T12:27:03.321Z,100840.06
2022-10-16T12:29:39.260Z,100828.22
2022-10-16T12:32:47.509Z,100847.53
2022-10-16T12:35:25.046Z,100835.38
2022-10-16T12:37:55.407Z,100839.00
2022-10-16T12:40:33.075Z,100843.09
2022-10-16T12:43:28.900Z,100845.69
2022-10-16T12:46:05.232Z,100841.59
2022-10-16T12:48:48.308Z,100837.16
2022-10-16T12:51:27.761Z,100839.84
2022-10-16T12:54:03.933Z,100852.31
2022-10-16T12:56:48.886Z,100860.41
2022-10-16T12:59:37.437Z,100853.97
2022-10-16T13:02:42.428Z,100854.06
2022-10-16T13:05:40.731Z,100846.28
2022-10-16T13:08:35.833Z,100843.63
2022-10-16T13:11:18.555Z,100845.47
2022-10-16T13:14:22.487Z,100850.16
2022-10-16T13:17:08.333Z,100855.19
2022-10-16T13:19:49.739Z,100863.28
2022-10-16T13:22:31.400Z,100874.63
2022-10-16T13:25:20.461Z,100875.72
2022-10-16T13:27:57.454Z,100869.94
2022-10-16T13:30:30.731Z,100862.91
2022-10-16T13:33:06.457Z,100864.59
2022-10-16T13:35:37.118Z,100873.91
2022-10-16T13:38:20.557Z,100873.34
2022-10-16T13:40:58.777Z,100865.50
2022-10-16T13:43:33.633Z,100878.97
2022-10-16T13:46:05.565Z,100878.97
2022-10-16T13:48:36.784Z,100874.94
2022-10-16T13:51:14.240Z,100875.72
2022-10-16T13:53:44.353Z,100879.75
2022-10-16T13:56:15.847Z,100873.75
2022-10-16T13:58:45.759Z,100878.28
2022-10-16T14:01:22.187Z,100876.19
2022-10-16T14:03:53.838Z,100866.97
2022-10-16T14:06:24.351Z,100866.81
2022-10-16T14:09:01.184Z,100869.91
2022-10-16T14:11:30.845Z,100866.81
2022-10-16T14:13:59.941Z,100863.19
2022-10-16T14:16:33.272Z,100876.84
2022-10-16T14:19:07.844Z,100876.16
2022-10-16T14:21:37.004Z,100884.06
2022-10-16T14:24:14.203Z,100886.66
2022-10-16T14:26:51.116Z,100881.50
2022-10-16T14:29:22.019Z,100871.31
2022-10-16T14:31:59.213Z,100891.06
2022-10-16T14:34:34.177Z,100887.97
2022-10-16T14:37:10.693Z,100886.47
2022-10-16T14:39:39.610Z,100893.72
2022-10-16T14:42:20.654Z,100894.88
2022-10-16T14:44:51.802Z,100891.19
2022-10-16T14:47:26.403Z,100891.88
2022-10-16T14:49:59.738Z,100903.53
2022-10-16T14:52:28.303Z,100899.91
2022-10-16T14:54:57.536Z,100887.13
2022-10-16T14:57:33.562Z,100889.78
2022-10-16T15:00:02.534Z,100890.50
2022-10-16T15:02:34.032Z,100892.63
2022-10-16T15:05:17.432Z,100896.53
2022-10-16T15:07:46.984Z,100891.75
2022-10-16T15:10:16.875Z,100895.97
2022-10-16T15:12:45.993Z,100903.25
2022-10-16T15:15:33.180Z,100913.91
2022-10-16T15:18:02.334Z,100924.69
2022-10-16T15:20:36.483Z,100911.94
2022-10-16T15:23:08.494Z,100917.66
2022-10-16T15:25:43.213Z,100913.88
2022-10-16T15:28:13.899Z,100918.66
2022-10-16T15:30:43.161Z,100921.72
2022-10-16T15:33:16.418Z,100910.25
2022-10-16T15:35:49.794Z,100918.22
2022-10-16T15:38:20.501Z,100918.63
2022-10-16T15:40:50.299Z,100919.88
2022-10-16T15:43:19.705Z,100924.94
2022-10-16T15:46:03.397Z,100927.59
2022-10-16T15:48:32.755Z,100921.00
2022-10-16T15:51:07.823Z,100930.13
2022-10-16T15:53:37.144Z,100928.16
2022-10-16T15:56:07.170Z,100937.09
2022-10-16T15:58:35.770Z,100941.94
2022-10-16T16:01:05.584Z,100936.69
2022-10-16T16:03:36.799Z,100936.69
2022-10-16T16:06:12.871Z,100941.16
2022-10-16T16:08:41.923Z,100944.63
2022-10-16T16:11:13.997Z,100953.69
2022-10-16T16:13:43.316Z,100956.63
2022-10-16T16:16:15.184Z,100963.19
2022-10-16T16:18:45.038Z,100957.72
2022-10-16T16:21:15.363Z,100961.66
2022-10-16T16:23:44.024Z,100964.88
2022-10-16T16:26:16.370Z,100967.72
2022-10-16T16:28:45.607Z,100961.53
2022-10-16T16:31:14.372Z,100973.28
2022-10-16T16:33:42.886Z,100969.47
2022-10-16T16:36:15.779Z,100975.06
2022-10-16T16:38:46.372Z,100979.56
2022-10-16T16:41:16.772Z,100976.47
2022-10-16T16:43:45.922Z,100984.84
2022-10-16T16:46:15.432Z,100988.59
2022-10-16T16:48:44.906Z,100992.03
2022-10-16T16:51:17.258Z,100999.97
2022-10-16T16:53:50.026Z,100992.38
2022-10-16T16:56:20.360Z,100992.19
2022-10-16T16:58:50.727Z,101003.28
2022-10-16T17:01:21.526Z,101007.53
2022-10-16T17:03:53.119Z,101006.19
2022-10-16T17:06:24.796Z,101016.34
2022-10-16T17:08:55.655Z,101001.28
2022-10-16T17:11:28.014Z,101009.84
2022-10-16T17:13:59.332Z,101015.38
2022-10-16T17:16:32.460Z,101020.34
2022-10-16T17:19:03.303Z,101020.00
2022-10-16T17:21:33.079Z,101026.72
2022-10-16T17:24:03.820Z,101019.63
2022-10-16T17:26:33.020Z,101023.97
2022-10-16T17:29:03.446Z,101029.88
2022-10-16T17:31:35.311Z,101029.38
2022-10-16T17:34:07.352Z,101022.63
2022-10-16T17:36:39.608Z,101033.84
2022-10-16T17:39:13.211Z,101038.91
2022-10-16T17:41:42.119Z,101044.53
2022-10-16T17:44:13.472Z,101050.56
2022-10-16T17:46:42.283Z,101048.16
2022-10-16T17:49:11.575Z,101038.84
2022-10-16T17:51:40.536Z,101030.81
2022-10-16T17:54:11.745Z,101054.41
2022-10-16T17:56:40.519Z,101063.94
2022-10-16T17:59:09.058Z,101064.91
2022-10-16T18:01:41.622Z,101063.31
2022-10-16T18:04:13.187Z,101062.81
2022-10-16T18:06:44.190Z,101064.63
2022-10-16T18:09:19.147Z,101050.84
2022-10-16T18:11:49.278Z,101073.13
2022-10-16T18:14:19.418Z,101075.06
2022-10-16T18:16:48.213Z,101074.63
2022-10-16T18:19:16.744Z,101073.41
2022-10-16T18:21:46.788Z,101075.41
2022-10-16T18:24:17.974Z,101068.81
2022-10-16T18:26:47.025Z,101071.47
2022-10-16T18:29:15.593Z,101082.56
2022-10-16T18:31:44.343Z,101083.16
2022-10-16T18:34:13.149Z,101083.72
2022-10-16T18:36:43.069Z,101079.31
2022-10-16T18:39:13.239Z,101083.28
2022-10-16T18:41:45.791Z,101083.13
2022-10-16T18:44:15.050Z,101083.00
2022-10-16T18:46:44.002Z,101084.94
2022-10-16T18:49:12.514Z,101088.53
2022-10-16T18:51:44.126Z,101082.94
2022-10-16T18:54:13.858Z,101087.84
2022-10-16T18:56:43.929Z,101100.16
2022-10-16T18:59:12.462Z,101091.19
2022-10-16T19:01:43.486Z,101105.81
2022-10-16T19:04:14.968Z,101104.47
2022-10-16T19:06:46.599Z,101092.66
2022-10-16T19:09:17.480Z,101102.28
2022-10-16T19:11:47.892Z,101111.00
2022-10-16T19:14:18.707Z,101118.09
2022-10-16T19:16:47.837Z,101129.19
2022-10-16T19:19:19.254Z,101140.72
2022-10-16T19:21:51.220Z,101130.72
2022-10-16T19:24:19.791Z,101134.88
2022-10-16T19:26:49.910Z,101137.00
2022-10-16T19:29:18.417Z,101140.91
2022-10-16T19:31:47.171Z,101142.94
2022-10-16T19:34:15.740Z,101146.72
2022-10-16T19:36:44.500Z,101153.28
2022-10-16T19:39:17.276Z,101150.97
2022-10-16T19:41:47.431Z,101149.59
2022-10-16T19:44:19.156Z,101153.81
2022-10-16T19:46:49.449Z,101156.06
2022-10-16T19:49:21.775Z,101168.75
2022-10-16T19:51:52.250Z,101158.47
2022-10-16T19:54:21.370Z,101166.63
2022-10-16T19:56:50.120Z,101179.00
2022-10-16T19:59:20.380Z,101174.13
2022-10-16T20:01:49.757Z,101175.47
2022-10-16T20:04:18.739Z,101182.78
2022-10-16T20:06:47.660Z,101176.84
2022-10-16T20:09:16.397Z,101177.06
2022-10-16T20:11:45.167Z,101180.63
2022-10-16T20:14:13.796Z,101192.06
2022-10-16T20:16:43.908Z,101189.91
2022-10-16T20:19:12.506Z,101199.75
2022-10-16T20:21:41.367Z,101193.72
2022-10-16T20:24:09.928Z,101193.19
2022-10-16T20:26:39.279Z,101194.41
2022-10-16T20:29:08.987Z,101196.41
2022-10-16T20:31:38.525Z,101201.31
2022-10-16T20:34:12.400Z,101204.34
2022-10-16T20:36:45.333Z,101215.22
2022-10-16T20:39:14.778Z,101221.53
2022-10-16T20:41:43.599Z,101218.34
2022-10-16T20:44:12.181Z,101223.72
2022-10-16T20:46:41.703Z,101225.63
2022-10-16T20:49:27.886Z,101224.69
2022-10-16T20:51:57.556Z,101222.53
2022-10-16T20:54:26.081Z,101230.16
2022-10-16T20:56:54.832Z,101236.09
2022-10-16T20:59:23.386Z,101237.03
2022-10-16T21:01:52.211Z,101238.00
2022-10-16T21:04:22.188Z,101238.94
2022-10-16T21:06:50.925Z,101234.91
2022-10-16T21:09:19.454Z,101231.38
2022-10-16T21:11:48.303Z,101239.31
2022-10-16T21:14:16.833Z,101228.97
2022-10-16T21:16:45.562Z,101230.66
2022-10-16T21:19:14.140Z,101227.25
2022-10-16T21:21:44.223Z,101236.13
2022-10-16T21:24:16.566Z,101234.44
2022-10-16T21:26:46.180Z,101243.38
2022-10-16T21:29:15.140Z,101239.31
2022-10-16T21:31:44.569Z,101241.97
2022-10-16T21:34:13.127Z,101243.75
2022-10-16T21:36:44.259Z,101246.31
2022-10-16T21:39:16.720Z,101245.44
2022-10-16T21:41:48.110Z,101252.59
2022-10-16T21:44:17.886Z,101256.41
2022-10-16T21:46:47.900Z,101261.88
2022-10-16T21:49:20.008Z,101263.75
2022-10-16T21:51:51.817Z,101265.94
2022-10-16T21:54:23.590Z,101265.19
2022-10-16T21:56:53.011Z,101268.00
2022-10-16T21:59:22.003Z,101268.94
2022-10-16T22:01:53.843Z,101271.19
2022-10-16T22:04:22.468Z,101272.81
2022-10-16T22:06:52.533Z,101262.44
2022-10-16T22:09:21.034Z,101265.91
2022-10-16T22:11:50.897Z,101276.47
2022-10-16T22:14:21.687Z,101275.63
2022-10-16T22:16:51.759Z,101278.38
2022-10-16T22:19:22.855Z,101288.00
2022-10-16T22:21:57.263Z,101282.97
2022-10-16T22:24:26.020Z,101289.09
2022-10-16T22:26:54.816Z,101282.50
2022-10-16T22:29:23.691Z,101284.31
2022-10-16T22:31:53.745Z,101283.81
2022-10-16T22:34:22.254Z,101291.91
2022-10-16T22:36:52.429Z,101301.63
2022-10-16T22:39:20.969Z,101296.63
2022-10-16T22:41:49.773Z,101300.78
2022-10-16T22:44:18.337Z,101308.13
2022-10-16T22:46:47.079Z,101308.97
2022-10-16T22:49:17.478Z,101305.94
2022-10-16T22:51:46.258Z,101313.75
2022-10-16T22:54:16.528Z,101312.03
2022-10-16T22:56:45.319Z,101315.81
2022-10-16T22:59:13.882Z,101316.75
2022-10-16T23:01:44.069Z,101322.97
2022-10-16T23:04:12.592Z,101327.56
2022-10-16T23:06:41.296Z,101314.66
2022-10-16T23:09:11.509Z,101314.84
2022-10-16T23:11:41.595Z,101320.19
2022-10-16T23:14:10.093Z,101317.72
2022-10-16T23:16:38.806Z,101324.78
2022-10-16T23:19:07.317Z,101324.13
2022-10-16T23:21:36.002Z,101321.66
2022-10-16T23:24:04.841Z,101327.09
2022-10-16T23:26:36.422Z,101322.03
2022-10-16T23:29:06.586Z,101330.09
2022-10-16T23:31:35.331Z,101328.47
2022-10-16T23:34:03.962Z,101340.06
2022-10-16T23:36:32.698Z,101331.41
2022-10-16T23:39:01.234Z,101336.38
2022-10-16T23:41:29.974Z,101342.78
2022-10-16T23:43:58.487Z,101337.69
2022-10-16T23:46:28.729Z,101356.81
2022-10-16T23:48:57.667Z,101359.59
2022-10-16T23:51:26.999Z,101368.38
2022-10-16T23:53:55.881Z,101375.78
2022-10-16T23:56:24.593Z,101370.00
2022-10-16T23:58:53.146Z,101377.91
